Time;durP1;ratioP1;P1;durP2;ratioP2;P2;SDS_P1;SDS_P2;PMS_P1;PMS_P2;Temp;Humidity;BMP_temperature;BMP_pressure;BME280_temperature;BME280_humidity;BME280_pressure;Samples;Min_cycle;Max_cycle;Signal;HPM_P1;HPM_P2
2021/07/21 00:00:44;;;;;;;67.72;26.73;;;;;;;;;;1484775;40;20021;-61
2021/07/21 00:01:45;;;;;;;64.40;26.42;;;;;;;;;;1484666;40;20393;-60
2021/07/21 00:02:48;;;;;;;70.90;28.30;;;;;;;;;;1484895;40;20024;-60
2021/07/21 00:03:48;;;;;;;64.85;26.23;;;;;;;;;;1484752;40;20063;-60
2021/07/21 00:04:50;;;;;;;62.95;26.88;;;;;;;;;;1484868;40;20029;-61
2021/07/21 00:05:51;;;;;;;64.35;25.58;;;;;;;;;;1484614;40;20312;-61
2021/07/21 00:06:53;;;;;;;64.35;26.15;;;;;;;;;;1484636;40;20029;-61
2021/07/21 00:07:54;;;;;;;58.33;26.02;;;;;;;;;;1484641;40;20021;-62
2021/07/21 00:08:56;;;;;;;64.43;26.10;;;;;;;;;;1484523;40;20101;-61
2021/07/21 00:09:57;;;;;;;71.30;26.92;;;;;;;;;;1484530;40;20293;-61
2021/07/21 00:13:36;;;;;;;67.38;25.55;;;;;;;;;;1471394;40;20038;-62
2021/07/21 00:14:39;;;;;;;66.43;25.50;;;;;;;;;;1482406;40;20300;-61
2021/07/21 00:15:47;;;;;;;62.63;25.90;;;;;;;;;;1484652;40;20021;-61
2021/07/21 00:16:54;;;;;;;60.08;24.38;;;;;;;;;;1484635;40;20021;-61
2021/07/21 00:18:00;;;;;;;61.25;24.98;;;;;;;;;;1484693;40;20029;-61
2021/07/21 00:19:05;;;;;;;56.78;24.65;;;;;;;;;;1484620;40;20036;-61
2021/07/21 00:20:08;;;;;;;55.15;23.90;;;;;;;;;;1484514;40;20036;-61
2021/07/21 00:21:10;;;;;;;58.45;23.63;;;;;;;;;;1484746;40;20141;-60
2021/07/21 00:22:12;;;;;;;59.30;25.30;;;;;;;;;;1484652;40;20021;-62
2021/07/21 00:23:15;;;;;;;60.63;24.52;;;;;;;;;;1484747;40;20033;-62
2021/07/21 00:24:15;;;;;;;55.40;23.90;;;;;;;;;;1484483;40;20027;-61
2021/07/21 00:25:17;;;;;;;56.78;22.52;;;;;;;;;;1484732;40;20032;-60
2021/07/21 00:26:19;;;;;;;55.67;23.67;;;;;;;;;;1484610;40;20025;-61
2021/07/21 00:27:23;;;;;;;52.63;22.98;;;;;;;;;;1484520;40;20029;-61
2021/07/21 00:28:24;;;;;;;53.03;22.00;;;;;;;;;;1484519;40;20456;-61
2021/07/21 00:29:26;;;;;;;53.70;22.75;;;;;;;;;;1484404;40;20029;-61
2021/07/21 00:30:32;;;;;;;54.20;23.13;;;;;;;;;;1484483;40;20040;-61
2021/07/21 00:31:45;;;;;;;54.45;23.00;;;;;;;;;;1484583;40;20036;-62
2021/07/21 00:32:46;;;;;;;51.58;22.92;;;;;;;;;;1484538;40;20024;-61
2021/07/21 00:33:49;;;;;;;55.80;24.20;;;;;;;;;;1484707;40;20032;-61
2021/07/21 00:34:49;;;;;;;60.38;24.13;;;;;;;;;;1484426;40;20021;-61
2021/07/21 00:35:51;;;;;;;56.47;24.35;;;;;;;;;;1484716;40;20031;-61
2021/07/21 00:36:52;;;;;;;59.47;24.42;;;;;;;;;;1484452;40;20028;-61
2021/07/21 00:37:54;;;;;;;57.75;25.13;;;;;;;;;;1484771;40;20021;-62
2021/07/21 00:38:55;;;;;;;61.20;25.73;;;;;;;;;;1484396;40;20481;-61
2021/07/21 00:39:56;;;;;;;55.03;24.77;;;;;;;;;;1484845;40;20102;-61
2021/07/21 00:40:57;;;;;;;62.40;25.50;;;;;;;;;;1484614;40;20032;-60
2021/07/21 00:41:59;;;;;;;52.10;24.00;;;;;;;;;;1484714;40;20296;-61
2021/07/21 00:43:02;;;;;;;55.35;23.73;;;;;;;;;;1484419;40;20024;-61
2021/07/21 00:44:05;;;;;;;57.58;24.27;;;;;;;;;;1484650;40;20028;-62
2021/07/21 00:45:07;;;;;;;55.15;24.52;;;;;;;;;;1484429;40;20017;-62
2021/07/21 00:46:09;;;;;;;55.35;23.23;;;;;;;;;;1484686;40;20032;-61
2021/07/21 00:47:10;;;;;;;53.72;23.63;;;;;;;;;;1484399;40;20028;-61
2021/07/21 00:48:12;;;;;;;56.25;23.67;;;;;;;;;;1484653;40;20032;-61
2021/07/21 00:49:13;;;;;;;60.00;24.52;;;;;;;;;;1484399;40;20025;-61
2021/07/21 00:50:14;;;;;;;60.70;25.00;;;;;;;;;;1483919;40;20325;-61
2021/07/21 00:51:16;;;;;;;56.33;23.83;;;;;;;;;;1484016;40;20029;-61
2021/07/21 00:52:18;;;;;;;54.25;22.95;;;;;;;;;;1484553;40;20024;-61
2021/07/21 00:53:20;;;;;;;59.25;24.65;;;;;;;;;;1484585;40;20388;-61
2021/07/21 00:54:22;;;;;;;61.38;24.55;;;;;;;;;;1484533;40;20039;-60
2021/07/21 00:55:24;;;;;;;57.58;24.60;;;;;;;;;;1484566;40;20021;-62
2021/07/21 00:56:26;;;;;;;55.10;24.83;;;;;;;;;;1484591;40;20317;-61
2021/07/21 00:57:27;;;;;;;57.13;24.33;;;;;;;;;;1484298;40;20029;-60
2021/07/21 00:58:30;;;;;;;58.90;25.23;;;;;;;;;;1484467;40;20033;-61
2021/07/21 00:59:33;;;;;;;55.72;24.15;;;;;;;;;;1484451;40;20024;-61
2021/07/21 01:00:35;;;;;;;56.85;24.73;;;;;;;;;;1484667;40;20032;-61
2021/07/21 01:01:36;;;;;;;57.13;24.15;;;;;;;;;;1484332;40;20376;-60
2021/07/21 01:02:38;;;;;;;55.28;24.52;;;;;;;;;;1484449;40;20116;-61
2021/07/21 01:03:39;;;;;;;57.30;24.90;;;;;;;;;;1484536;40;20415;-61
2021/07/21 01:04:40;;;;;;;59.95;25.63;;;;;;;;;;1484528;40;20024;-62
2021/07/21 01:05:42;;;;;;;59.50;24.85;;;;;;;;;;1484537;40;20025;-61
2021/07/21 01:06:44;;;;;;;61.85;25.08;;;;;;;;;;1484560;40;20254;-60
2021/07/21 01:07:46;;;;;;;59.60;24.38;;;;;;;;;;1484395;40;20269;-61
2021/07/21 01:08:50;;;;;;;49.70;23.80;;;;;;;;;;1484676;40;20028;-61
2021/07/21 01:09:51;;;;;;;60.30;24.70;;;;;;;;;;1484263;40;20029;-61
2021/07/21 01:11:00;;;;;;;56.72;24.75;;;;;;;;;;1484538;40;20362;-60
2021/07/21 01:12:06;;;;;;;57.55;23.83;;;;;;;;;;1484485;40;20025;-61
2021/07/21 01:13:15;;;;;;;51.65;23.73;;;;;;;;;;1484587;40;20377;-61
2021/07/21 01:14:22;;;;;;;57.67;24.27;;;;;;;;;;1484348;40;20472;-61
2021/07/21 01:15:33;;;;;;;57.42;23.67;;;;;;;;;;1484501;40;20025;-61
2021/07/21 01:16:38;;;;;;;51.83;23.60;;;;;;;;;;1484422;40;20032;-61
2021/07/21 01:17:45;;;;;;;58.25;24.20;;;;;;;;;;1484578;40;20367;-60
2021/07/21 01:18:53;;;;;;;62.65;24.15;;;;;;;;;;1484392;40;20402;-61
2021/07/21 01:20:21;;;;;;;60.75;23.95;;;;;;;;;;1484401;40;20029;-61
2021/07/21 01:21:55;;;;;;;60.95;24.48;;;;;;;;;;1483085;40;20035;-61
2021/07/21 01:23:03;;;;;;;59.53;24.40;;;;;;;;;;1484308;40;20032;-61
2021/07/21 01:24:13;;;;;;;56.13;23.85;;;;;;;;;;1484424;40;20018;-59
2021/07/21 01:25:16;;;;;;;61.35;26.00;;;;;;;;;;1484373;40;20484;-60
2021/07/21 01:26:21;;;;;;;64.20;25.83;;;;;;;;;;1483894;40;20017;-60
2021/07/21 01:27:28;;;;;;;63.78;25.85;;;;;;;;;;1483951;40;20083;-61
2021/07/21 01:28:30;;;;;;;68.35;26.55;;;;;;;;;;1484479;40;20102;-61
2021/07/21 01:29:31;;;;;;;59.88;25.85;;;;;;;;;;1484291;40;20025;-61
2021/07/21 01:30:37;;;;;;;66.88;27.40;;;;;;;;;;1484327;40;20373;-61
2021/07/21 01:31:41;;;;;;;63.80;26.27;;;;;;;;;;1484259;40;20032;-60
2021/07/21 01:32:45;;;;;;;64.88;25.83;;;;;;;;;;1484284;40;20062;-61
2021/07/21 01:33:47;;;;;;;62.15;24.60;;;;;;;;;;1484210;40;20300;-61
2021/07/21 01:34:51;;;;;;;66.43;26.85;;;;;;;;;;1484591;40;20041;-61
2021/07/21 01:35:56;;;;;;;63.40;25.27;;;;;;;;;;1484331;40;20028;-61
2021/07/21 01:36:59;;;;;;;68.68;25.65;;;;;;;;;;1484366;40;20336;-61
2021/07/21 01:38:07;;;;;;;56.70;25.27;;;;;;;;;;1484434;40;20040;-60
2021/07/21 01:39:14;;;;;;;60.65;25.08;;;;;;;;;;1484660;40;20074;-61
2021/07/21 01:40:21;;;;;;;58.28;25.42;;;;;;;;;;1484568;40;20359;-61
2021/07/21 01:41:28;;;;;;;60.65;26.17;;;;;;;;;;1484390;40;20040;-60
2021/07/21 01:42:31;;;;;;;59.83;25.63;;;;;;;;;;1484259;40;20024;-61
2021/07/21 01:43:34;;;;;;;57.13;24.52;;;;;;;;;;1484334;40;20382;-61
2021/07/21 01:44:38;;;;;;;52.75;24.08;;;;;;;;;;1484252;40;20025;-60
2021/07/21 01:45:44;;;;;;;53.78;24.17;;;;;;;;;;1484462;40;20100;-61
2021/07/21 01:46:51;;;;;;;52.45;23.27;;;;;;;;;;1484347;40;20017;-61
2021/07/21 01:47:53;;;;;;;58.67;24.92;;;;;;;;;;1484459;40;20025;-61
2021/07/21 01:48:57;;;;;;;59.88;24.90;;;;;;;;;;1484410;40;20366;-61
2021/07/21 01:49:59;;;;;;;57.55;24.23;;;;;;;;;;1484367;40;20032;-60
2021/07/21 01:51:01;;;;;;;55.20;24.13;;;;;;;;;;1484290;40;20025;-59
2021/07/21 01:52:07;;;;;;;50.42;24.10;;;;;;;;;;1484629;40;20036;-61
2021/07/21 01:53:08;;;;;;;54.13;23.38;;;;;;;;;;1483688;40;20028;-61
2021/07/21 01:54:10;;;;;;;54.00;23.70;;;;;;;;;;1483890;40;20033;-61
2021/07/21 01:55:12;;;;;;;51.17;23.23;;;;;;;;;;1484177;40;20025;-61
2021/07/21 01:56:15;;;;;;;53.28;22.83;;;;;;;;;;1484201;40;20017;-62
2021/07/21 01:57:16;;;;;;;50.47;23.02;;;;;;;;;;1484294;40;20025;-61
2021/07/21 01:58:20;;;;;;;54.58;23.23;;;;;;;;;;1484424;40;20065;-61
2021/07/21 01:59:22;;;;;;;49.03;22.48;;;;;;;;;;1484303;40;20037;-61
2021/07/21 02:00:26;;;;;;;48.83;21.27;;;;;;;;;;1484446;40;20029;-62
2021/07/21 02:01:28;;;;;;;47.42;21.55;;;;;;;;;;1484308;40;20040;-60
2021/07/21 02:02:31;;;;;;;49.25;21.15;;;;;;;;;;1484390;40;20060;-61
2021/07/21 02:03:34;;;;;;;45.15;22.13;;;;;;;;;;1484225;40;20106;-61
2021/07/21 02:04:38;;;;;;;51.88;22.85;;;;;;;;;;1484251;40;20270;-61
2021/07/21 02:05:39;;;;;;;53.15;23.42;;;;;;;;;;1484172;40;20028;-61
2021/07/21 02:06:41;;;;;;;47.63;22.50;;;;;;;;;;1484372;40;20413;-61
2021/07/21 02:07:44;;;;;;;51.75;22.98;;;;;;;;;;1484347;40;20028;-61
2021/07/21 02:08:47;;;;;;;48.85;22.38;;;;;;;;;;1484250;40;20061;-61
2021/07/21 02:09:48;;;;;;;54.03;23.10;;;;;;;;;;1484494;40;20025;-61
2021/07/21 02:10:50;;;;;;;46.92;22.33;;;;;;;;;;1484993;40;20060;-60
2021/07/21 02:11:51;;;;;;;54.15;22.85;;;;;;;;;;1484878;40;20025;-61
2021/07/21 02:12:56;;;;;;;52.72;22.50;;;;;;;;;;1484993;40;20418;-61
2021/07/21 02:14:00;;;;;;;49.70;21.60;;;;;;;;;;1484807;40;20303;-61
2021/07/21 02:15:02;;;;;;;49.05;21.00;;;;;;;;;;1484985;40;20433;-61
2021/07/21 02:16:05;;;;;;;52.28;22.80;;;;;;;;;;1484823;40;20021;-61
2021/07/21 02:17:07;;;;;;;46.42;21.42;;;;;;;;;;1485088;40;20024;-61
2021/07/21 02:18:08;;;;;;;50.17;22.00;;;;;;;;;;1484801;40;20036;-61
2021/07/21 02:19:10;;;;;;;48.05;22.35;;;;;;;;;;1485176;40;20025;-61
2021/07/21 02:20:12;;;;;;;49.50;22.77;;;;;;;;;;1484938;40;20032;-61
2021/07/21 02:21:15;;;;;;;48.50;22.52;;;;;;;;;;1485111;40;20049;-61
2021/07/21 02:22:18;;;;;;;55.10;22.15;;;;;;;;;;1485035;40;20037;-61
2021/07/21 02:23:25;;;;;;;53.42;22.08;;;;;;;;;;1485046;40;20027;-61
2021/07/21 02:24:27;;;;;;;50.88;21.63;;;;;;;;;;1484972;40;20025;-61
2021/07/21 02:25:29;;;;;;;46.88;21.33;;;;;;;;;;1484920;40;20025;-61
2021/07/21 02:26:34;;;;;;;53.78;22.05;;;;;;;;;;1484945;40;20028;-61
2021/07/21 02:27:36;;;;;;;61.85;23.27;;;;;;;;;;1484890;40;20035;-61
2021/07/21 02:28:38;;;;;;;48.05;21.95;;;;;;;;;;1484864;40;20025;-61
2021/07/21 02:29:42;;;;;;;53.10;23.02;;;;;;;;;;1484888;40;20110;-61
2021/07/21 02:30:46;;;;;;;50.72;22.25;;;;;;;;;;1484863;40;20068;-61
2021/07/21 02:31:54;;;;;;;57.85;23.25;;;;;;;;;;1485080;40;20404;-61
2021/07/21 02:33:01;;;;;;;50.05;21.70;;;;;;;;;;1484867;40;20036;-61
2021/07/21 02:34:03;;;;;;;51.55;22.05;;;;;;;;;;1484770;40;20029;-61
2021/07/21 02:35:05;;;;;;;49.67;21.90;;;;;;;;;;1484764;40;20028;-61
2021/07/21 02:36:07;;;;;;;49.53;21.95;;;;;;;;;;1484767;40;20041;-61
2021/07/21 02:37:08;;;;;;;51.40;22.80;;;;;;;;;;1484953;40;20021;-62
2021/07/21 02:38:11;;;;;;;55.72;24.05;;;;;;;;;;1484811;40;20086;-60
2021/07/21 02:39:12;;;;;;;55.03;24.15;;;;;;;;;;1484908;40;20410;-61
2021/07/21 02:40:15;;;;;;;48.88;21.45;;;;;;;;;;1484928;40;20032;-61
2021/07/21 02:41:15;;;;;;;51.53;22.52;;;;;;;;;;1484685;40;20400;-61
2021/07/21 02:42:19;;;;;;;49.47;21.73;;;;;;;;;;1485050;40;20024;-61
2021/07/21 02:43:19;;;;;;;50.55;22.85;;;;;;;;;;1484697;40;20419;-60
2021/07/21 02:44:21;;;;;;;48.38;21.83;;;;;;;;;;1484829;40;20020;-61
2021/07/21 02:45:24;;;;;;;53.90;22.50;;;;;;;;;;1484376;40;20025;-60
2021/07/21 02:46:26;;;;;;;50.17;21.25;;;;;;;;;;1484406;40;20021;-61
2021/07/21 02:47:28;;;;;;;48.60;22.63;;;;;;;;;;1484792;40;20025;-61
2021/07/21 02:48:30;;;;;;;53.25;22.30;;;;;;;;;;1484827;40;20109;-60
2021/07/21 02:49:31;;;;;;;54.70;22.13;;;;;;;;;;1484801;40;20024;-61
2021/07/21 02:50:33;;;;;;;52.97;22.65;;;;;;;;;;1484678;40;20035;-61
2021/07/21 02:51:40;;;;;;;51.75;22.38;;;;;;;;;;1484786;40;20040;-61
2021/07/21 02:52:51;;;;;;;49.00;21.25;;;;;;;;;;1484819;40;20329;-60
2021/07/21 02:53:58;;;;;;;48.00;21.58;;;;;;;;;;1484848;40;20408;-60
2021/07/21 02:55:07;;;;;;;48.17;20.92;;;;;;;;;;1484872;40;20028;-61
2021/07/21 02:56:10;;;;;;;54.38;22.63;;;;;;;;;;1484848;40;20032;-61
2021/07/21 02:57:19;;;;;;;48.78;21.52;;;;;;;;;;1484772;40;20389;-60
2021/07/21 02:58:29;;;;;;;48.47;21.50;;;;;;;;;;1484729;40;20028;-61
2021/07/21 02:59:42;;;;;;;48.17;21.25;;;;;;;;;;1484927;40;20432;-61
2021/07/21 03:00:45;;;;;;;49.42;20.70;;;;;;;;;;1484768;40;20314;-60
2021/07/21 03:01:49;;;;;;;50.72;20.90;;;;;;;;;;1484878;40;20403;-60
2021/07/21 03:02:52;;;;;;;45.92;20.77;;;;;;;;;;1484733;40;20052;-60
2021/07/21 03:03:55;;;;;;;49.65;21.25;;;;;;;;;;1484831;40;20518;-61
2021/07/21 03:04:57;;;;;;;47.80;20.80;;;;;;;;;;1484729;40;20098;-61
2021/07/21 03:06:03;;;;;;;44.40;20.67;;;;;;;;;;1484871;40;20029;-61
2021/07/21 03:07:06;;;;;;;48.00;21.70;;;;;;;;;;1484674;40;20091;-61
2021/07/21 03:08:08;;;;;;;51.35;21.63;;;;;;;;;;1484910;40;20269;-61
2021/07/21 03:09:10;;;;;;;55.67;21.90;;;;;;;;;;1484711;40;20029;-61
2021/07/21 03:10:13;;;;;;;50.55;22.83;;;;;;;;;;1484745;40;20037;-61
2021/07/21 03:11:16;;;;;;;49.75;21.65;;;;;;;;;;1484742;40;20143;-60
2021/07/21 03:12:19;;;;;;;49.75;22.00;;;;;;;;;;1484754;40;20389;-61
2021/07/21 03:13:23;;;;;;;50.55;22.05;;;;;;;;;;1484708;40;20028;-61
2021/07/21 03:14:25;;;;;;;51.47;21.77;;;;;;;;;;1484838;40;20430;-61
2021/07/21 03:15:30;;;;;;;52.60;22.92;;;;;;;;;;1484802;40;20035;-61
2021/07/21 03:16:36;;;;;;;55.50;21.73;;;;;;;;;;1484812;40;20020;-61
2021/07/21 03:17:38;;;;;;;44.75;21.23;;;;;;;;;;1484701;40;20029;-61
2021/07/21 03:18:45;;;;;;;49.50;22.20;;;;;;;;;;1484989;40;20095;-61
2021/07/21 03:19:50;;;;;;;47.25;22.13;;;;;;;;;;1484700;40;20032;-61
2021/07/21 03:20:55;;;;;;;54.95;23.02;;;;;;;;;;1484813;40;20125;-61
2021/07/21 03:21:57;;;;;;;50.42;22.60;;;;;;;;;;1485153;40;20284;-57
2021/07/21 03:23:02;;;;;;;51.30;22.80;;;;;;;;;;1484816;40;20469;-58
2021/07/21 03:24:05;;;;;;;53.95;22.60;;;;;;;;;;1484706;40;20044;-58
2021/07/21 03:25:09;;;;;;;48.22;21.65;;;;;;;;;;1484893;40;20040;-59
2021/07/21 03:26:11;;;;;;;47.72;22.02;;;;;;;;;;1484692;40;20025;-57
2021/07/21 03:27:14;;;;;;;48.75;21.58;;;;;;;;;;1484798;40;20029;-58
2021/07/21 03:28:15;;;;;;;49.88;20.52;;;;;;;;;;1484750;40;20025;-58
2021/07/21 03:29:19;;;;;;;51.83;21.83;;;;;;;;;;1484790;40;20303;-57
2021/07/21 03:30:21;;;;;;;48.00;21.38;;;;;;;;;;1484567;40;20292;-57
2021/07/21 03:31:25;;;;;;;48.75;20.65;;;;;;;;;;1484933;40;20032;-57
2021/07/21 03:32:27;;;;;;;51.67;21.90;;;;;;;;;;1484705;40;20028;-58
2021/07/21 03:33:31;;;;;;;45.75;20.92;;;;;;;;;;1484679;40;20073;-58
2021/07/21 03:34:34;;;;;;;50.72;21.45;;;;;;;;;;1484675;40;20025;-57
2021/07/21 03:35:37;;;;;;;54.38;23.00;;;;;;;;;;1484762;40;20381;-58
2021/07/21 03:36:44;;;;;;;48.63;21.00;;;;;;;;;;1484699;40;20052;-58
2021/07/21 03:37:47;;;;;;;51.47;21.77;;;;;;;;;;1484745;40;20511;-58
2021/07/21 03:38:49;;;;;;;46.67;21.38;;;;;;;;;;1484677;40;20312;-58
2021/07/21 03:39:54;;;;;;;53.42;21.83;;;;;;;;;;1484621;40;20041;-58
2021/07/21 03:40:57;;;;;;;43.15;20.85;;;;;;;;;;1484773;40;20098;-58
2021/07/21 03:41:58;;;;;;;52.17;21.05;;;;;;;;;;1484662;40;20021;-58
2021/07/21 03:43:00;;;;;;;50.58;21.73;;;;;;;;;;1484748;40;20020;-57
2021/07/21 03:44:03;;;;;;;47.38;22.00;;;;;;;;;;1484777;40;20025;-58
2021/07/21 03:45:09;;;;;;;46.40;21.05;;;;;;;;;;1484622;40;20369;-58
2021/07/21 03:46:09;;;;;;;47.35;21.25;;;;;;;;;;1484675;40;20276;-57
2021/07/21 03:47:15;;;;;;;47.83;20.92;;;;;;;;;;1484789;40;20036;-58
2021/07/21 03:48:17;;;;;;;49.90;22.98;;;;;;;;;;1484702;40;20036;-58
2021/07/21 03:49:20;;;;;;;50.72;22.08;;;;;;;;;;1484995;40;20025;-58
2021/07/21 03:50:23;;;;;;;50.03;22.05;;;;;;;;;;1484672;40;20035;-58
2021/07/21 03:51:25;;;;;;;52.22;22.33;;;;;;;;;;1484153;40;20033;-57
2021/07/21 03:52:26;;;;;;;52.03;22.10;;;;;;;;;;1484098;40;20029;-58
2021/07/21 03:53:32;;;;;;;47.28;21.45;;;;;;;;;;1484721;40;20053;-57
2021/07/21 03:54:33;;;;;;;48.42;21.23;;;;;;;;;;1484739;40;20126;-58
2021/07/21 03:55:38;;;;;;;47.38;20.73;;;;;;;;;;1484611;40;20032;-58
2021/07/21 03:56:41;;;;;;;53.88;21.55;;;;;;;;;;1484639;40;20021;-58
2021/07/21 03:57:44;;;;;;;48.92;20.13;;;;;;;;;;1484848;40;20017;-58
2021/07/21 03:58:45;;;;;;;48.53;21.85;;;;;;;;;;1484685;40;20304;-58
2021/07/21 03:59:47;;;;;;;54.72;22.52;;;;;;;;;;1484676;40;20405;-57
2021/07/21 04:00:49;;;;;;;49.67;21.70;;;;;;;;;;1484582;40;20024;-59
2021/07/21 04:01:52;;;;;;;51.70;22.33;;;;;;;;;;1484870;40;20033;-58
2021/07/21 04:02:56;;;;;;;53.85;22.42;;;;;;;;;;1484720;40;20024;-57
2021/07/21 04:04:02;;;;;;;47.42;21.27;;;;;;;;;;1484675;40;20359;-57
2021/07/21 04:05:03;;;;;;;52.97;21.10;;;;;;;;;;1484625;40;20115;-57
2021/07/21 04:06:06;;;;;;;48.08;21.70;;;;;;;;;;1484671;40;20061;-57
2021/07/21 04:07:08;;;;;;;51.08;21.10;;;;;;;;;;1484628;40;20021;-57
2021/07/21 04:08:10;;;;;;;53.95;21.35;;;;;;;;;;1484602;40;20024;-58
2021/07/21 04:09:13;;;;;;;52.70;22.10;;;;;;;;;;1484568;40;20027;-58
2021/07/21 04:10:16;;;;;;;60.30;23.00;;;;;;;;;;1484569;40;20033;-57
2021/07/21 04:11:17;;;;;;;51.97;22.02;;;;;;;;;;1484557;40;20389;-58
2021/07/21 04:12:21;;;;;;;64.78;22.83;;;;;;;;;;1484605;40;20367;-58
2021/07/21 04:13:24;;;;;;;52.97;21.80;;;;;;;;;;1484759;40;20021;-58
2021/07/21 04:14:26;;;;;;;50.50;21.13;;;;;;;;;;1484729;40;20113;-58
2021/07/21 04:15:28;;;;;;;50.67;22.70;;;;;;;;;;1484763;40;20044;-57
2021/07/21 04:16:33;;;;;;;46.53;20.02;;;;;;;;;;1484942;40;20028;-58
2021/07/21 04:17:35;;;;;;;52.45;21.52;;;;;;;;;;1484498;40;20027;-58
2021/07/21 04:18:37;;;;;;;52.08;21.02;;;;;;;;;;1484602;40;20032;-65
2021/07/21 04:19:42;;;;;;;52.05;22.15;;;;;;;;;;1484765;40;20021;-57
2021/07/21 04:20:43;;;;;;;48.83;22.00;;;;;;;;;;1484738;40;20056;-57
2021/07/21 04:21:48;;;;;;;52.92;21.23;;;;;;;;;;1484545;40;20061;-58
2021/07/21 04:22:50;;;;;;;47.17;19.98;;;;;;;;;;1484483;40;20353;-58
2021/07/21 04:23:52;;;;;;;54.35;22.20;;;;;;;;;;1484658;40;20408;-58
2021/07/21 04:24:56;;;;;;;47.67;20.92;;;;;;;;;;1484542;40;20027;-58
2021/07/21 04:25:59;;;;;;;52.95;22.02;;;;;;;;;;1484574;40;20032;-58
2021/07/21 04:27:02;;;;;;;58.83;22.67;;;;;;;;;;1483912;40;20401;-58
2021/07/21 04:28:05;;;;;;;52.72;21.63;;;;;;;;;;1484271;40;20025;-58
2021/07/21 04:29:10;;;;;;;52.65;21.58;;;;;;;;;;1484491;40;20409;-58
2021/07/21 04:30:13;;;;;;;53.67;21.90;;;;;;;;;;1484637;40;20110;-58
2021/07/21 04:31:16;;;;;;;52.35;22.02;;;;;;;;;;1484435;40;20300;-58
2021/07/21 04:32:21;;;;;;;54.55;21.63;;;;;;;;;;1484177;40;20028;-58
2021/07/21 04:33:22;;;;;;;48.85;20.85;;;;;;;;;;1484496;40;20036;-58
2021/07/21 04:34:25;;;;;;;59.25;23.75;;;;;;;;;;1484667;40;20033;-57
2021/07/21 04:35:28;;;;;;;55.63;21.58;;;;;;;;;;1484566;40;20028;-58
2021/07/21 04:36:30;;;;;;;52.55;22.02;;;;;;;;;;1484170;40;20029;-58
2021/07/21 04:37:31;;;;;;;49.70;21.65;;;;;;;;;;1484067;40;20021;-58
2021/07/21 04:38:33;;;;;;;49.72;21.38;;;;;;;;;;1484630;40;20110;-58
2021/07/21 04:39:35;;;;;;;49.75;22.55;;;;;;;;;;1484472;40;20024;-58
2021/07/21 04:40:43;;;;;;;51.50;21.55;;;;;;;;;;1484480;40;20041;-58
2021/07/21 04:41:44;;;;;;;52.03;22.38;;;;;;;;;;1484679;40;20028;-58
2021/07/21 04:42:46;;;;;;;48.35;22.63;;;;;;;;;;1484464;40;20024;-58
2021/07/21 04:43:47;;;;;;;50.72;21.33;;;;;;;;;;1484476;40;20292;-58
2021/07/21 04:44:49;;;;;;;53.53;23.08;;;;;;;;;;1484618;40;20025;-58
2021/07/21 04:45:51;;;;;;;51.83;22.58;;;;;;;;;;1484461;40;20296;-58
2021/07/21 04:46:55;;;;;;;47.90;21.67;;;;;;;;;;1484798;40;20052;-58
2021/07/21 04:47:56;;;;;;;49.05;21.27;;;;;;;;;;1484389;40;20025;-58
2021/07/21 04:48:58;;;;;;;54.72;21.08;;;;;;;;;;1484640;40;20106;-58
2021/07/21 04:50:00;;;;;;;50.25;21.25;;;;;;;;;;1483869;40;20385;-59
2021/07/21 04:51:03;;;;;;;50.75;21.13;;;;;;;;;;1484201;40;20052;-58
2021/07/21 04:52:06;;;;;;;52.95;21.88;;;;;;;;;;1484544;40;20032;-59
2021/07/21 04:53:08;;;;;;;52.67;20.88;;;;;;;;;;1484603;40;20106;-58
2021/07/21 04:54:09;;;;;;;47.72;21.05;;;;;;;;;;1484412;40;20025;-58
2021/07/21 04:55:11;;;;;;;56.10;22.52;;;;;;;;;;1484537;40;20029;-60
2021/07/21 04:56:12;;;;;;;46.40;20.63;;;;;;;;;;1484394;40;20025;-58
2021/07/21 04:57:15;;;;;;;53.85;22.58;;;;;;;;;;1484449;40;20020;-58
2021/07/21 04:58:16;;;;;;;56.00;23.33;;;;;;;;;;1484644;40;20133;-58
2021/07/21 04:59:18;;;;;;;51.33;22.70;;;;;;;;;;1484420;40;20025;-58
2021/07/21 05:00:19;;;;;;;52.63;22.02;;;;;;;;;;1484492;40;20021;-58
2021/07/21 05:01:21;;;;;;;49.35;21.27;;;;;;;;;;1483949;40;20029;-58
2021/07/21 05:02:21;;;;;;;50.22;22.45;;;;;;;;;;1484005;40;20029;-58
2021/07/21 05:03:24;;;;;;;52.40;22.25;;;;;;;;;;1484574;40;20032;-58
2021/07/21 05:04:24;;;;;;;50.40;21.50;;;;;;;;;;1484468;40;20028;-58
2021/07/21 05:05:26;;;;;;;48.00;21.30;;;;;;;;;;1484514;40;20029;-58
2021/07/21 05:06:30;;;;;;;53.95;21.92;;;;;;;;;;1484343;40;20025;-58
2021/07/21 05:07:32;;;;;;;45.30;21.63;;;;;;;;;;1484535;40;20028;-58
2021/07/21 05:08:33;;;;;;;45.55;20.95;;;;;;;;;;1484442;40;20301;-58
2021/07/21 05:09:34;;;;;;;48.70;21.30;;;;;;;;;;1484567;40;20024;-58
2021/07/21 05:10:35;;;;;;;50.58;21.80;;;;;;;;;;1484463;40;20029;-58
2021/07/21 05:11:37;;;;;;;45.45;20.77;;;;;;;;;;1484434;40;20408;-58
2021/07/21 05:12:43;;;;;;;48.08;21.40;;;;;;;;;;1484349;40;20052;-58
2021/07/21 05:13:45;;;;;;;46.53;21.08;;;;;;;;;;1484466;40;20036;-58
2021/07/21 05:14:46;;;;;;;44.38;21.55;;;;;;;;;;1484371;40;20029;-58
2021/07/21 05:15:48;;;;;;;48.30;22.33;;;;;;;;;;1484548;40;20311;-58
2021/07/21 05:16:49;;;;;;;47.42;21.35;;;;;;;;;;1484401;40;20065;-58
2021/07/21 05:17:51;;;;;;;45.17;20.48;;;;;;;;;;1484529;40;20036;-58
2021/07/21 05:18:51;;;;;;;44.72;21.52;;;;;;;;;;1484397;40;20028;-58
2021/07/21 05:19:53;;;;;;;45.20;21.30;;;;;;;;;;1484498;40;20033;-58
2021/07/21 05:20:54;;;;;;;51.65;22.40;;;;;;;;;;1484403;40;20359;-58
2021/07/21 05:21:57;;;;;;;50.60;23.38;;;;;;;;;;1484472;40;20037;-58
2021/07/21 05:22:58;;;;;;;51.30;23.02;;;;;;;;;;1484540;40;20292;-58
2021/07/21 05:24:00;;;;;;;53.38;24.58;;;;;;;;;;1484355;40;20029;-58
2021/07/21 05:25:00;;;;;;;44.55;21.48;;;;;;;;;;1484319;40;20032;-58
2021/07/21 05:26:04;;;;;;;47.28;22.58;;;;;;;;;;1484668;40;20029;-58
2021/07/21 05:27:05;;;;;;;45.15;21.75;;;;;;;;;;1484308;40;20021;-58
2021/07/21 05:28:08;;;;;;;48.05;21.73;;;;;;;;;;1484466;40;20060;-58
2021/07/21 05:29:08;;;;;;;45.15;21.92;;;;;;;;;;1484365;40;20042;-58
2021/07/21 05:30:13;;;;;;;44.42;20.85;;;;;;;;;;1484426;40;20021;-58
2021/07/21 05:31:14;;;;;;;44.78;20.90;;;;;;;;;;1484231;40;20416;-58
2021/07/21 05:32:17;;;;;;;49.53;21.88;;;;;;;;;;1484364;40;20032;-58
2021/07/21 05:33:18;;;;;;;47.45;21.58;;;;;;;;;;1484302;40;20020;-58
2021/07/21 05:34:19;;;;;;;40.72;19.73;;;;;;;;;;1484531;40;20032;-58
2021/07/21 05:35:20;;;;;;;46.45;21.50;;;;;;;;;;1484427;40;20025;-58
2021/07/21 05:36:22;;;;;;;50.95;22.70;;;;;;;;;;1484469;40;20385;-58
2021/07/21 05:37:24;;;;;;;50.40;22.08;;;;;;;;;;1484350;40;20405;-58
2021/07/21 05:38:26;;;;;;;43.97;21.75;;;;;;;;;;1484408;40;20032;-58
2021/07/21 05:39:27;;;;;;;41.58;21.02;;;;;;;;;;1484307;40;20022;-58
2021/07/21 05:40:29;;;;;;;41.28;20.60;;;;;;;;;;1484740;40;20024;-59
2021/07/21 05:41:30;;;;;;;42.22;21.63;;;;;;;;;;1484634;40;20482;-58
2021/07/21 05:42:31;;;;;;;51.70;23.00;;;;;;;;;;1484902;40;20106;-60
2021/07/21 05:43:32;;;;;;;48.53;23.27;;;;;;;;;;1484132;40;20032;-59
2021/07/21 05:44:34;;;;;;;47.15;21.65;;;;;;;;;;1484455;40;20032;-59
2021/07/21 05:45:35;;;;;;;52.05;22.85;;;;;;;;;;1485350;40;20043;-58
2021/07/21 05:46:37;;;;;;;54.45;23.63;;;;;;;;;;1485459;40;20025;-60
2021/07/21 05:47:38;;;;;;;47.60;22.13;;;;;;;;;;1485517;40;20027;-59
2021/07/21 05:48:39;;;;;;;49.72;22.48;;;;;;;;;;1485455;40;20289;-58
2021/07/21 05:49:41;;;;;;;56.10;23.45;;;;;;;;;;1485481;40;20032;-60
2021/07/21 05:50:43;;;;;;;54.92;23.83;;;;;;;;;;1485491;40;20029;-60
2021/07/21 05:51:43;;;;;;;50.47;23.70;;;;;;;;;;1485152;40;20027;-58
2021/07/21 05:52:46;;;;;;;46.78;23.25;;;;;;;;;;1485070;40;20350;-60
2021/07/21 05:53:47;;;;;;;49.40;23.02;;;;;;;;;;1484958;40;20036;-59
2021/07/21 05:54:49;;;;;;;49.45;22.92;;;;;;;;;;1485050;40;20028;-58
2021/07/21 05:55:50;;;;;;;47.38;23.42;;;;;;;;;;1485137;40;20377;-59
2021/07/21 05:56:52;;;;;;;47.20;22.33;;;;;;;;;;1485109;40;20021;-59
2021/07/21 05:57:52;;;;;;;47.22;23.30;;;;;;;;;;1484920;40;20028;-58
2021/07/21 05:58:54;;;;;;;50.33;23.15;;;;;;;;;;1485050;40;20025;-58
2021/07/21 05:59:55;;;;;;;52.08;25.05;;;;;;;;;;1484981;40;20017;-58
2021/07/21 06:00:57;;;;;;;49.38;22.75;;;;;;;;;;1485294;40;20063;-58
2021/07/21 06:01:58;;;;;;;48.33;23.38;;;;;;;;;;1485114;40;20021;-59
2021/07/21 06:03:00;;;;;;;51.75;23.15;;;;;;;;;;1485177;40;20032;-58
2021/07/21 06:04:01;;;;;;;49.05;23.13;;;;;;;;;;1484906;40;20385;-58
2021/07/21 06:05:04;;;;;;;50.75;22.42;;;;;;;;;;1485046;40;20025;-58
2021/07/21 06:06:07;;;;;;;47.05;22.02;;;;;;;;;;1485089;40;20028;-58
2021/07/21 06:07:09;;;;;;;49.47;22.67;;;;;;;;;;1485049;40;20036;-58
2021/07/21 06:08:11;;;;;;;43.17;21.25;;;;;;;;;;1484828;40;20024;-58
2021/07/21 06:09:13;;;;;;;49.85;23.40;;;;;;;;;;1485005;40;20431;-58